UAL280 KDEN-PANC
Flight info
| Callsign | UAL280 |
|---|---|
| Flight time | N/A |
| Altitude | 34000 |
| Route | DDRTH1 DDRTH DLN/N0455F360 FINUT YVR YZT KATCH B453 MDO WITTI5 |
| Aircraft | B38M/M-SDE1FGHILORVWXY/HB1 |
Departure
| Time | 2026-05-05 15:19 |
|---|---|
| Airport | Denver International Airport (KDEN) |
Arrival
| Time | N/A |
|---|---|
| Airport | Ted Stevens Anchorage International Airport (PANC) |
| Time | Latitude | Longitude | Altitude | Speed | Heading |
|---|---|---|---|---|---|
| 2026-05-05 14:48 | 39.85936 | -104.67296 | 5382 ft | 0 kts | 180° |
| 2026-05-05 15:05 | 39.85977 | -104.67296 | 5379 ft | 3 kts | 180° |
| 2026-05-05 15:05 | 39.86004 | -104.67304 | 5381 ft | 4 kts | 130° |
| 2026-05-05 15:05 | 39.86011 | -104.67323 | 5379 ft | 4 kts | 96° |
| 2026-05-05 15:06 | 39.86011 | -104.67353 | 5377 ft | 1 kts | 90° |
| 2026-05-05 15:09 | 39.86011 | -104.67345 | 5382 ft | 3 kts | 90° |
| 2026-05-05 15:09 | 39.86011 | -104.67303 | 5382 ft | 7 kts | 90° |
| 2026-05-05 15:09 | 39.86010 | -104.67231 | 5382 ft | 9 kts | 91° |
| 2026-05-05 15:09 | 39.86009 | -104.67137 | 5382 ft | 11 kts | 91° |
| 2026-05-05 15:10 | 39.86008 | -104.67050 | 5382 ft | 8 kts | 90° |
| 2026-05-05 15:10 | 39.86008 | -104.66996 | 5382 ft | 5 kts | 90° |
| 2026-05-05 15:10 | 39.86008 | -104.66942 | 5382 ft | 7 kts | 89° |
| 2026-05-05 15:10 | 39.86008 | -104.66869 | 5382 ft | 9 kts | 90° |
| 2026-05-05 15:11 | 39.86007 | -104.66779 | 5382 ft | 11 kts | 91° |
| 2026-05-05 15:11 | 39.86006 | -104.66670 | 5382 ft | 13 kts | 91° |
| 2026-05-05 15:11 | 39.86011 | -104.66546 | 5382 ft | 15 kts | 83° |
| 2026-05-05 15:11 | 39.86017 | -104.66416 | 5385 ft | 13 kts | 91° |
| 2026-05-05 15:12 | 39.86015 | -104.66325 | 5387 ft | 7 kts | 90° |
| 2026-05-05 15:12 | 39.86015 | -104.66292 | 5388 ft | 1 kts | 90° |
| 2026-05-05 15:12 | 39.86015 | -104.66289 | 5388 ft | 1 kts | 91° |
| 2026-05-05 15:12 | 39.86019 | -104.66268 | 5389 ft | 4 kts | 71° |
| 2026-05-05 15:13 | 39.86044 | -104.66236 | 5386 ft | 7 kts | 26° |
| 2026-05-05 15:13 | 39.86107 | -104.66229 | 5387 ft | 11 kts | 1° |
| 2026-05-05 15:13 | 39.86199 | -104.66228 | 5384 ft | 15 kts | 0° |
| 2026-05-05 15:13 | 39.86307 | -104.66226 | 5382 ft | 16 kts | 1° |
| 2026-05-05 15:14 | 39.86422 | -104.66225 | 5384 ft | 17 kts | 0° |
| 2026-05-05 15:14 | 39.86546 | -104.66223 | 5383 ft | 19 kts | 0° |
| 2026-05-05 15:14 | 39.86682 | -104.66222 | 5380 ft | 20 kts | 1° |
| 2026-05-05 15:14 | 39.86826 | -104.66220 | 5374 ft | 20 kts | 0° |
| 2026-05-05 15:15 | 39.86960 | -104.66219 | 5371 ft | 18 kts | 1° |
| 2026-05-05 15:15 | 39.87079 | -104.66218 | 5369 ft | 16 kts | 0° |
| 2026-05-05 15:15 | 39.87183 | -104.66217 | 5366 ft | 14 kts | 1° |
| 2026-05-05 15:15 | 39.87280 | -104.66214 | 5365 ft | 15 kts | 1° |
| 2026-05-05 15:16 | 39.87389 | -104.66214 | 5364 ft | 17 kts | 0° |
| 2026-05-05 15:16 | 39.87511 | -104.66212 | 5362 ft | 18 kts | 1° |
| 2026-05-05 15:16 | 39.87630 | -104.66211 | 5365 ft | 16 kts | 0° |
| 2026-05-05 15:16 | 39.87726 | -104.66210 | 5364 ft | 10 kts | 0° |
| 2026-05-05 15:17 | 39.87753 | -104.66189 | 5363 ft | 3 kts | 71° |
| 2026-05-05 15:17 | 39.87754 | -104.66172 | 5362 ft | 1 kts | 89° |
| 2026-05-05 15:17 | 39.87754 | -104.66170 | 5362 ft | 0 kts | 89° |
| 2026-05-05 15:17 | 39.87754 | -104.65943 | 5359 ft | 56 kts | 90° |
| 2026-05-05 15:18 | 39.87748 | -104.65183 | 5351 ft | 111 kts | 90° |
| 2026-05-05 15:18 | 39.87738 | -104.63958 | 5334 ft | 158 kts | 90° |
| 2026-05-05 15:18 | 39.87755 | -104.62380 | 5464 ft | 185 kts | 88° |
| 2026-05-05 15:18 | 39.87748 | -104.60647 | 6030 ft | 194 kts | 90° |
| 2026-05-05 15:19 | 39.87787 | -104.58899 | 6862 ft | 192 kts | 82° |
| 2026-05-05 15:19 | 39.88093 | -104.57215 | 7502 ft | 194 kts | 77° |
| 2026-05-05 15:19 | 39.88483 | -104.55453 | 7854 ft | 210 kts | 76° |
| 2026-05-05 15:19 | 39.88923 | -104.53550 | 8205 ft | 227 kts | 76° |
| 2026-05-05 15:20 | 39.89365 | -104.51557 | 8858 ft | 232 kts | 79° |
| 2026-05-05 15:20 | 39.89814 | -104.49489 | 9409 ft | 243 kts | 78° |
| 2026-05-05 15:20 | 39.90315 | -104.47277 | 9616 ft | 268 kts | 77° |
| 2026-05-05 15:20 | 39.90888 | -104.44872 | 9917 ft | 285 kts | 76° |
| 2026-05-05 15:21 | 39.91629 | -104.42473 | 9931 ft | 294 kts | 59° |
| 2026-05-05 15:21 | 39.93098 | -104.40589 | 9971 ft | 301 kts | 32° |
| 2026-05-05 15:21 | 39.95087 | -104.39690 | 10037 ft | 307 kts | 7° |
| 2026-05-05 15:21 | 39.97265 | -104.39349 | 10343 ft | 324 kts | 7° |
| 2026-05-05 15:22 | 39.99568 | -104.38943 | 10605 ft | 342 kts | 7° |
| 2026-05-05 15:22 | 40.01976 | -104.38524 | 11016 ft | 353 kts | 7° |
| 2026-05-05 15:22 | 40.04416 | -104.38348 | 11703 ft | 351 kts | 351° |
| 2026-05-05 15:22 | 40.06728 | -104.39245 | 12394 ft | 346 kts | 329° |
| 2026-05-05 15:23 | 40.08700 | -104.40948 | 13053 ft | 346 kts | 321° |
| 2026-05-05 15:23 | 40.10664 | -104.42769 | 13731 ft | 347 kts | 321° |
| 2026-05-05 15:23 | 40.12628 | -104.44612 | 14349 ft | 348 kts | 320° |
| 2026-05-05 15:23 | 40.14574 | -104.46456 | 14899 ft | 351 kts | 320° |
| 2026-05-05 15:24 | 40.16556 | -104.48342 | 15478 ft | 352 kts | 320° |
| 2026-05-05 15:24 | 40.18539 | -104.50235 | 16006 ft | 355 kts | 320° |
| 2026-05-05 15:24 | 40.20530 | -104.52160 | 16525 ft | 356 kts | 320° |
| 2026-05-05 15:24 | 40.22531 | -104.54098 | 17042 ft | 358 kts | 320° |
| 2026-05-05 15:25 | 40.24541 | -104.56045 | 17545 ft | 360 kts | 320° |
| 2026-05-05 15:25 | 40.26561 | -104.58004 | 18034 ft | 362 kts | 320° |
| 2026-05-05 15:25 | 40.28594 | -104.59977 | 18489 ft | 364 kts | 320° |
| 2026-05-05 15:25 | 40.30636 | -104.61957 | 18898 ft | 367 kts | 320° |
| 2026-05-05 15:26 | 40.32692 | -104.63951 | 19293 ft | 369 kts | 320° |
| 2026-05-05 15:26 | 40.34771 | -104.65969 | 19687 ft | 371 kts | 320° |
| 2026-05-05 15:26 | 40.36824 | -104.67963 | 20064 ft | 373 kts | 320° |
| 2026-05-05 15:26 | 40.38921 | -104.70002 | 20440 ft | 375 kts | 320° |
| 2026-05-05 15:27 | 40.41026 | -104.72050 | 20810 ft | 378 kts | 320° |
| 2026-05-05 15:27 | 40.43142 | -104.74109 | 21172 ft | 380 kts | 320° |
| 2026-05-05 15:27 | 40.45270 | -104.76183 | 21536 ft | 382 kts | 320° |
| 2026-05-05 15:27 | 40.47412 | -104.78272 | 21899 ft | 384 kts | 320° |
| 2026-05-05 15:28 | 40.49566 | -104.80374 | 22249 ft | 386 kts | 320° |
| 2026-05-05 15:28 | 40.51726 | -104.82484 | 22591 ft | 388 kts | 320° |
| 2026-05-05 15:28 | 40.53901 | -104.84610 | 22934 ft | 391 kts | 320° |
| 2026-05-05 15:28 | 40.56087 | -104.86749 | 23280 ft | 393 kts | 320° |
| 2026-05-05 15:29 | 40.58289 | -104.88906 | 23618 ft | 395 kts | 319° |
| 2026-05-05 15:29 | 40.60475 | -104.91048 | 23917 ft | 397 kts | 319° |
| 2026-05-05 15:29 | 40.62695 | -104.93226 | 24219 ft | 399 kts | 319° |
| 2026-05-05 15:29 | 40.64926 | -104.95416 | 24547 ft | 401 kts | 319° |
| 2026-05-05 15:30 | 40.67170 | -104.97620 | 24867 ft | 403 kts | 319° |
| 2026-05-05 15:30 | 40.69424 | -104.99836 | 25198 ft | 404 kts | 319° |
| 2026-05-05 15:30 | 40.71681 | -105.02058 | 25514 ft | 406 kts | 319° |
| 2026-05-05 15:30 | 40.73949 | -105.04291 | 25832 ft | 407 kts | 319° |
| 2026-05-05 15:31 | 40.76182 | -105.06586 | 26114 ft | 405 kts | 311° |
| 2026-05-05 15:31 | 40.77986 | -105.09408 | 26392 ft | 402 kts | 304° |
| 2026-05-05 15:31 | 40.79729 | -105.12252 | 26613 ft | 405 kts | 305° |
| 2026-05-05 15:31 | 40.81496 | -105.15156 | 26905 ft | 406 kts | 304° |
| 2026-05-05 15:32 | 40.83257 | -105.18077 | 27169 ft | 407 kts | 304° |
| 2026-05-05 15:32 | 40.85020 | -105.21017 | 27454 ft | 408 kts | 304° |
| 2026-05-05 15:32 | 40.86788 | -105.23971 | 27713 ft | 410 kts | 304° |
| 2026-05-05 15:32 | 40.88555 | -105.26927 | 27974 ft | 411 kts | 304° |
| 2026-05-05 15:33 | 40.90334 | -105.29907 | 28214 ft | 413 kts | 304° |
| 2026-05-05 15:33 | 40.92116 | -105.32895 | 28453 ft | 414 kts | 304° |
| 2026-05-05 15:33 | 40.93907 | -105.35901 | 28675 ft | 416 kts | 304° |
| 2026-05-05 15:33 | 40.95674 | -105.38869 | 28898 ft | 417 kts | 304° |
| 2026-05-05 15:34 | 40.97470 | -105.41890 | 29114 ft | 419 kts | 304° |
| 2026-05-05 15:34 | 40.99271 | -105.44922 | 29309 ft | 420 kts | 304° |
| 2026-05-05 15:34 | 41.01085 | -105.47977 | 29541 ft | 422 kts | 304° |
| 2026-05-05 15:34 | 41.02900 | -105.51038 | 29759 ft | 423 kts | 304° |
| 2026-05-05 15:35 | 41.04719 | -105.54110 | 29965 ft | 425 kts | 304° |
| 2026-05-05 15:35 | 41.06548 | -105.57200 | 30157 ft | 426 kts | 304° |
| 2026-05-05 15:35 | 41.08380 | -105.60300 | 30335 ft | 427 kts | 304° |
| 2026-05-05 15:35 | 41.10212 | -105.63403 | 30516 ft | 428 kts | 303° |
| 2026-05-05 15:36 | 41.12050 | -105.66518 | 30691 ft | 429 kts | 303° |
| 2026-05-05 15:36 | 41.13888 | -105.69636 | 30899 ft | 429 kts | 303° |
| 2026-05-05 15:36 | 41.15723 | -105.72754 | 31143 ft | 428 kts | 303° |
| 2026-05-05 15:36 | 41.17532 | -105.75830 | 31383 ft | 427 kts | 303° |
| 2026-05-05 15:37 | 41.19361 | -105.78942 | 31629 ft | 426 kts | 303° |
| 2026-05-05 15:37 | 41.21179 | -105.82040 | 31866 ft | 425 kts | 303° |
| 2026-05-05 15:37 | 41.22995 | -105.85136 | 32088 ft | 424 kts | 302° |
| 2026-05-05 15:37 | 41.24801 | -105.88219 | 32310 ft | 423 kts | 302° |
| 2026-05-05 15:38 | 41.26605 | -105.91301 | 32536 ft | 422 kts | 302° |
| 2026-05-05 15:38 | 41.28404 | -105.94380 | 32756 ft | 420 kts | 302° |
| 2026-05-05 15:38 | 41.30197 | -105.97450 | 32962 ft | 420 kts | 302° |
| 2026-05-05 15:38 | 41.31992 | -106.00526 | 33159 ft | 419 kts | 302° |
| 2026-05-05 15:39 | 41.33776 | -106.03587 | 33338 ft | 418 kts | 302° |
| 2026-05-05 15:39 | 41.35553 | -106.06640 | 33507 ft | 418 kts | 302° |
| 2026-05-05 15:39 | 41.37337 | -106.09707 | 33664 ft | 418 kts | 302° |
| 2026-05-05 15:39 | 41.39114 | -106.12765 | 33801 ft | 417 kts | 302° |
| 2026-05-05 15:40 | 41.40870 | -106.15788 | 33947 ft | 417 kts | 302° |
| 2026-05-05 15:40 | 41.44424 | -106.21915 | 33941 ft | 417 kts | 302° |
| 2026-05-05 15:41 | 41.48220 | -106.27791 | 33962 ft | 420 kts | 306° |
| 2026-05-05 15:41 | 41.52126 | -106.33603 | 33953 ft | 419 kts | 306° |
| 2026-05-05 15:42 | 41.55969 | -106.39376 | 33956 ft | 419 kts | 306° |
| 2026-05-05 15:42 | 41.59833 | -106.45194 | 33948 ft | 418 kts | 306° |
| 2026-05-05 15:43 | 41.63685 | -106.51007 | 33952 ft | 417 kts | 306° |
| 2026-05-05 15:43 | 41.67531 | -106.56822 | 33984 ft | 417 kts | 306° |
| 2026-05-05 15:44 | 41.71378 | -106.62650 | 33953 ft | 416 kts | 306° |
| 2026-05-05 15:44 | 41.75178 | -106.68418 | 33949 ft | 416 kts | 306° |
| 2026-05-05 15:45 | 41.79003 | -106.74235 | 33948 ft | 415 kts | 306° |
| 2026-05-05 15:45 | 41.82813 | -106.80042 | 33970 ft | 415 kts | 306° |
| 2026-05-05 15:46 | 41.86623 | -106.85859 | 33989 ft | 414 kts | 306° |
| 2026-05-05 15:46 | 41.90402 | -106.91641 | 33995 ft | 414 kts | 306° |
| 2026-05-05 15:47 | 41.94200 | -106.97462 | 33996 ft | 413 kts | 306° |
| 2026-05-05 15:47 | 41.97986 | -107.03277 | 33997 ft | 413 kts | 306° |
| 2026-05-05 15:48 | 42.01763 | -107.09090 | 33996 ft | 413 kts | 306° |
| 2026-05-05 15:48 | 42.05536 | -107.14908 | 33997 ft | 412 kts | 306° |
| 2026-05-05 15:49 | 42.09301 | -107.20724 | 33993 ft | 412 kts | 306° |
| 2026-05-05 15:49 | 42.13059 | -107.26541 | 33990 ft | 411 kts | 306° |
| 2026-05-05 15:50 | 42.16788 | -107.32324 | 33995 ft | 411 kts | 306° |
| 2026-05-05 15:50 | 42.20534 | -107.38146 | 33992 ft | 411 kts | 306° |
| 2026-05-05 15:51 | 42.23672 | -107.43031 | 33995 ft | 411 kts | 306° |
| 2026-05-05 15:51 | 42.27390 | -107.48830 | 33996 ft | 411 kts | 306° |
| 2026-05-05 15:52 | 42.31125 | -107.54667 | 33999 ft | 411 kts | 306° |
| 2026-05-05 15:52 | 42.35465 | -107.61465 | 34000 ft | 410 kts | 306° |
| 2026-05-05 15:53 | 42.38567 | -107.66332 | 33993 ft | 410 kts | 306° |
| 2026-05-05 15:53 | 42.42294 | -107.72192 | 33994 ft | 410 kts | 306° |
| 2026-05-05 15:54 | 42.46020 | -107.78060 | 33993 ft | 410 kts | 306° |
| 2026-05-05 15:54 | 42.49736 | -107.83926 | 33991 ft | 410 kts | 306° |
| 2026-05-05 15:55 | 42.53443 | -107.89789 | 33990 ft | 410 kts | 307° |
| 2026-05-05 15:55 | 42.57146 | -107.95657 | 33993 ft | 409 kts | 307° |
| 2026-05-05 15:56 | 42.60851 | -108.01540 | 33988 ft | 409 kts | 307° |
| 2026-05-05 15:56 | 42.64553 | -108.07430 | 33988 ft | 409 kts | 307° |
| 2026-05-05 15:57 | 42.68222 | -108.13279 | 33987 ft | 409 kts | 307° |
| 2026-05-05 15:57 | 42.71916 | -108.19179 | 33990 ft | 410 kts | 307° |
| 2026-05-05 15:58 | 42.75616 | -108.25102 | 33990 ft | 411 kts | 307° |
| 2026-05-05 15:58 | 42.79325 | -108.31050 | 33997 ft | 412 kts | 307° |
| 2026-05-05 15:59 | 42.83037 | -108.37016 | 34005 ft | 413 kts | 307° |
| 2026-05-05 15:59 | 42.86756 | -108.43004 | 34015 ft | 414 kts | 307° |
| 2026-05-05 16:00 | 42.90308 | -108.48735 | 34020 ft | 415 kts | 307° |
| 2026-05-05 16:00 | 42.94040 | -108.54770 | 34023 ft | 416 kts | 308° |
| 2026-05-05 16:01 | 42.97774 | -108.60820 | 34023 ft | 417 kts | 308° |
| 2026-05-05 16:01 | 43.01513 | -108.66890 | 34022 ft | 418 kts | 308° |
| 2026-05-05 16:02 | 43.05229 | -108.72936 | 34017 ft | 418 kts | 308° |
| 2026-05-05 16:02 | 43.08966 | -108.79028 | 34012 ft | 418 kts | 309° |
| 2026-05-05 16:03 | 43.12704 | -108.85136 | 34009 ft | 418 kts | 309° |
| 2026-05-05 16:03 | 43.16430 | -108.91236 | 34006 ft | 417 kts | 309° |
| 2026-05-05 16:04 | 43.20160 | -108.97355 | 34016 ft | 417 kts | 309° |
| 2026-05-05 16:04 | 43.23855 | -109.03430 | 34016 ft | 416 kts | 310° |
| 2026-05-05 16:05 | 43.27556 | -109.09526 | 34021 ft | 415 kts | 310° |
| 2026-05-05 16:05 | 43.31248 | -109.15621 | 34022 ft | 415 kts | 310° |
| 2026-05-05 16:06 | 43.34931 | -109.21715 | 34014 ft | 414 kts | 310° |
| 2026-05-05 16:06 | 43.38601 | -109.27798 | 34012 ft | 413 kts | 311° |
| 2026-05-05 16:07 | 43.42267 | -109.33888 | 34016 ft | 412 kts | 311° |
| 2026-05-05 16:07 | 43.45913 | -109.39959 | 34005 ft | 411 kts | 311° |
| 2026-05-05 16:08 | 43.49527 | -109.45987 | 34012 ft | 410 kts | 311° |
| 2026-05-05 16:08 | 43.53143 | -109.52033 | 34015 ft | 408 kts | 311° |
| 2026-05-05 16:09 | 43.56754 | -109.58081 | 34022 ft | 407 kts | 311° |
| 2026-05-05 16:09 | 43.60356 | -109.64127 | 34014 ft | 407 kts | 312° |
| 2026-05-05 16:10 | 43.63916 | -109.70116 | 34021 ft | 406 kts | 312° |
| 2026-05-05 16:10 | 43.67491 | -109.76142 | 34007 ft | 405 kts | 312° |
| 2026-05-05 16:11 | 43.71054 | -109.82161 | 33992 ft | 404 kts | 312° |
| 2026-05-05 16:12 | 43.78152 | -109.94188 | 33957 ft | 403 kts | 313° |
| 2026-05-05 16:13 | 43.86966 | -110.09192 | 33916 ft | 401 kts | 313° |
| 2026-05-05 16:13 | 43.90477 | -110.15190 | 33921 ft | 400 kts | 313° |
| 2026-05-05 16:14 | 43.97474 | -110.27181 | 33916 ft | 399 kts | 313° |
| 2026-05-05 16:15 | 44.04400 | -110.39101 | 33906 ft | 397 kts | 314° |
| 2026-05-05 16:16 | 44.11325 | -110.51067 | 33903 ft | 396 kts | 314° |
| 2026-05-05 16:17 | 44.16499 | -110.60040 | 33923 ft | 396 kts | 314° |
| 2026-05-05 16:18 | 44.21660 | -110.69020 | 33905 ft | 395 kts | 314° |
| 2026-05-05 16:19 | 44.26808 | -110.78003 | 33920 ft | 395 kts | 314° |
| 2026-05-05 16:19 | 44.31925 | -110.86962 | 33925 ft | 395 kts | 314° |
| 2026-05-05 16:20 | 44.38763 | -110.98976 | 33956 ft | 395 kts | 314° |
| 2026-05-05 16:22 | 44.47296 | -111.14038 | 33996 ft | 395 kts | 314° |
| 2026-05-05 16:23 | 44.54097 | -111.26100 | 34009 ft | 395 kts | 314° |
| 2026-05-05 16:23 | 44.59206 | -111.35195 | 34013 ft | 395 kts | 314° |
| 2026-05-05 16:24 | 44.62576 | -111.41211 | 34009 ft | 395 kts | 314° |
| 2026-05-05 16:25 | 44.67670 | -111.50325 | 34013 ft | 394 kts | 315° |
| 2026-05-05 16:25 | 44.72751 | -111.59449 | 34009 ft | 395 kts | 314° |
| 2026-05-05 16:26 | 44.78355 | -111.69542 | 34011 ft | 396 kts | 314° |
| 2026-05-05 16:27 | 44.80881 | -111.74104 | 34020 ft | 396 kts | 314° |
| 2026-05-05 16:27 | 44.84257 | -111.80212 | 34018 ft | 396 kts | 314° |
| 2026-05-05 16:28 | 44.87640 | -111.86347 | 34024 ft | 396 kts | 314° |
| 2026-05-05 16:28 | 44.91025 | -111.92495 | 34032 ft | 397 kts | 314° |
| 2026-05-05 16:29 | 44.94405 | -111.98647 | 34026 ft | 397 kts | 314° |
| 2026-05-05 16:29 | 44.97789 | -112.04816 | 34033 ft | 397 kts | 314° |
| 2026-05-05 16:30 | 45.01173 | -112.11002 | 34027 ft | 398 kts | 314° |
| 2026-05-05 16:30 | 45.04555 | -112.17194 | 34028 ft | 398 kts | 314° |
| 2026-05-05 16:31 | 45.07935 | -112.23397 | 34031 ft | 398 kts | 314° |
| 2026-05-05 16:31 | 45.11327 | -112.29634 | 34035 ft | 399 kts | 313° |
| 2026-05-05 16:32 | 45.14691 | -112.35835 | 34040 ft | 399 kts | 313° |
| 2026-05-05 16:32 | 45.18070 | -112.42076 | 34057 ft | 400 kts | 313° |
| 2026-05-05 16:33 | 45.21456 | -112.48343 | 34050 ft | 400 kts | 313° |
| 2026-05-05 16:33 | 45.24816 | -112.54659 | 34048 ft | 404 kts | 308° |
| 2026-05-05 16:34 | 45.27418 | -112.61846 | 34043 ft | 410 kts | 303° |
| 2026-05-05 16:34 | 45.30009 | -112.69075 | 34046 ft | 411 kts | 303° |
| 2026-05-05 16:35 | 45.32578 | -112.76270 | 34041 ft | 411 kts | 303° |
| 2026-05-05 16:35 | 45.35168 | -112.83539 | 34034 ft | 412 kts | 303° |
| 2026-05-05 16:36 | 45.37759 | -112.90830 | 34019 ft | 413 kts | 303° |
| 2026-05-05 16:36 | 45.40353 | -112.98150 | 34001 ft | 414 kts | 303° |
| 2026-05-05 16:37 | 45.42507 | -113.04244 | 33990 ft | 414 kts | 303° |
| 2026-05-05 16:37 | 45.45099 | -113.11597 | 33989 ft | 415 kts | 303° |
| 2026-05-05 16:38 | 45.47688 | -113.18961 | 33979 ft | 416 kts | 303° |
| 2026-05-05 16:38 | 45.50262 | -113.26302 | 33980 ft | 417 kts | 303° |
| 2026-05-05 16:39 | 45.52847 | -113.33694 | 33968 ft | 417 kts | 303° |
| 2026-05-05 16:39 | 45.55432 | -113.41107 | 33977 ft | 417 kts | 303° |
| 2026-05-05 16:40 | 45.58014 | -113.48531 | 33964 ft | 417 kts | 303° |
| 2026-05-05 16:40 | 45.60591 | -113.55964 | 33969 ft | 418 kts | 303° |
| 2026-05-05 16:41 | 45.63165 | -113.63406 | 33960 ft | 418 kts | 303° |
| 2026-05-05 16:41 | 45.65735 | -113.70861 | 33961 ft | 418 kts | 303° |
| 2026-05-05 16:42 | 45.68286 | -113.78277 | 33951 ft | 417 kts | 303° |
| 2026-05-05 16:42 | 45.70841 | -113.85729 | 33957 ft | 417 kts | 303° |
| 2026-05-05 16:43 | 45.73394 | -113.93197 | 33962 ft | 417 kts | 303° |
| 2026-05-05 16:43 | 45.75939 | -114.00657 | 33963 ft | 416 kts | 302° |
| 2026-05-05 16:44 | 45.78457 | -114.08062 | 33958 ft | 416 kts | 302° |
| 2026-05-05 16:44 | 45.80991 | -114.15537 | 33957 ft | 416 kts | 302° |
| 2026-05-05 16:45 | 45.83517 | -114.23008 | 33973 ft | 417 kts | 302° |
| 2026-05-05 16:45 | 45.86041 | -114.30491 | 33957 ft | 416 kts | 302° |
| 2026-05-05 16:46 | 45.88557 | -114.37984 | 34027 ft | 415 kts | 305° |
| 2026-05-05 16:46 | 45.91011 | -114.45306 | 34007 ft | 401 kts | 306° |
| 2026-05-05 16:47 | 45.93435 | -114.52548 | 33951 ft | 402 kts | 306° |
| 2026-05-05 16:47 | 45.95847 | -114.59781 | 33981 ft | 402 kts | 306° |
| 2026-05-05 16:48 | 45.98269 | -114.67066 | 33959 ft | 404 kts | 305° |
| 2026-05-05 16:48 | 46.00669 | -114.74304 | 33950 ft | 404 kts | 305° |
| 2026-05-05 16:49 | 46.03088 | -114.81618 | 33956 ft | 405 kts | 305° |
| 2026-05-05 16:49 | 46.05503 | -114.88946 | 33956 ft | 405 kts | 305° |
| 2026-05-05 16:50 | 46.07912 | -114.96273 | 33964 ft | 405 kts | 305° |
| 2026-05-05 16:50 | 46.10321 | -115.03619 | 33973 ft | 405 kts | 305° |
| 2026-05-05 16:51 | 46.12708 | -115.10921 | 33982 ft | 405 kts | 304° |
| 2026-05-05 16:51 | 46.15110 | -115.18287 | 33960 ft | 405 kts | 304° |
| 2026-05-05 16:52 | 46.17507 | -115.25662 | 33955 ft | 406 kts | 304° |
| 2026-05-05 16:52 | 46.19909 | -115.33071 | 34000 ft | 408 kts | 304° |
| 2026-05-05 16:53 | 46.22286 | -115.40426 | 33988 ft | 407 kts | 304° |
| 2026-05-05 16:53 | 46.24680 | -115.47854 | 33945 ft | 407 kts | 304° |
| 2026-05-05 16:54 | 46.27071 | -115.55293 | 33980 ft | 408 kts | 304° |
| 2026-05-05 16:54 | 46.29457 | -115.62741 | 33963 ft | 407 kts | 304° |
| 2026-05-05 16:55 | 46.31836 | -115.70186 | 33956 ft | 408 kts | 304° |
| 2026-05-05 16:55 | 46.34204 | -115.77618 | 33960 ft | 409 kts | 303° |
| 2026-05-05 16:56 | 46.36578 | -115.85092 | 33950 ft | 409 kts | 303° |
| 2026-05-05 16:56 | 46.38951 | -115.92583 | 33942 ft | 409 kts | 303° |
| 2026-05-05 16:57 | 46.41324 | -116.00099 | 33947 ft | 410 kts | 303° |
| 2026-05-05 16:57 | 46.43690 | -116.07613 | 33948 ft | 410 kts | 303° |
| 2026-05-05 16:58 | 46.46057 | -116.15151 | 33958 ft | 411 kts | 303° |
| 2026-05-05 16:58 | 46.48423 | -116.22710 | 33941 ft | 411 kts | 303° |
| 2026-05-05 16:59 | 46.50778 | -116.30254 | 33953 ft | 411 kts | 303° |
| 2026-05-05 16:59 | 46.53136 | -116.37834 | 33929 ft | 411 kts | 303° |
| 2026-05-05 17:00 | 46.55485 | -116.45406 | 33938 ft | 412 kts | 302° |
| 2026-05-05 17:00 | 46.57821 | -116.52956 | 33942 ft | 412 kts | 302° |
| 2026-05-05 17:01 | 46.60168 | -116.60567 | 33932 ft | 412 kts | 302° |
| 2026-05-05 17:01 | 46.62516 | -116.68199 | 33925 ft | 413 kts | 302° |
| 2026-05-05 17:02 | 46.64861 | -116.75840 | 33964 ft | 413 kts | 302° |
| 2026-05-05 17:02 | 46.67198 | -116.83480 | 33962 ft | 413 kts | 302° |
| 2026-05-05 17:03 | 46.69516 | -116.91076 | 33978 ft | 413 kts | 302° |
| 2026-05-05 17:03 | 46.71843 | -116.98729 | 34009 ft | 414 kts | 302° |
| 2026-05-05 17:04 | 46.74175 | -117.06417 | 33990 ft | 413 kts | 302° |
| 2026-05-05 17:04 | 46.76952 | -117.13611 | 33998 ft | 406 kts | 309° |
| 2026-05-05 17:05 | 46.79928 | -117.20616 | 34002 ft | 406 kts | 309° |
| 2026-05-05 17:05 | 46.82894 | -117.27575 | 33991 ft | 406 kts | 309° |
| 2026-05-05 17:06 | 46.85877 | -117.34586 | 33976 ft | 407 kts | 309° |
| 2026-05-05 17:06 | 46.88860 | -117.41615 | 33966 ft | 407 kts | 309° |
| 2026-05-05 17:07 | 46.91839 | -117.48652 | 33952 ft | 407 kts | 308° |
| 2026-05-05 17:07 | 46.94826 | -117.55726 | 33940 ft | 407 kts | 308° |
| 2026-05-05 17:08 | 46.97780 | -117.62740 | 33941 ft | 408 kts | 308° |
| 2026-05-05 17:08 | 47.00759 | -117.69830 | 33935 ft | 408 kts | 308° |
| 2026-05-05 17:09 | 47.03733 | -117.76928 | 33942 ft | 409 kts | 308° |
| 2026-05-05 17:09 | 47.06706 | -117.84042 | 33936 ft | 409 kts | 308° |
| 2026-05-05 17:10 | 47.09679 | -117.91175 | 33940 ft | 409 kts | 308° |
| 2026-05-05 17:10 | 47.12624 | -117.98257 | 33934 ft | 409 kts | 308° |
| 2026-05-05 17:11 | 47.15598 | -118.05429 | 33937 ft | 410 kts | 308° |
| 2026-05-05 17:11 | 47.18565 | -118.12603 | 33943 ft | 410 kts | 308° |
| 2026-05-05 17:12 | 47.21510 | -118.19743 | 33946 ft | 410 kts | 308° |
| 2026-05-05 17:12 | 47.24471 | -118.26941 | 33943 ft | 411 kts | 307° |
| 2026-05-05 17:13 | 47.27430 | -118.34153 | 33946 ft | 411 kts | 307° |
| 2026-05-05 17:13 | 47.30387 | -118.41377 | 33952 ft | 412 kts | 307° |
| 2026-05-05 17:14 | 47.33341 | -118.48616 | 33947 ft | 412 kts | 307° |
| 2026-05-05 17:14 | 47.36295 | -118.55871 | 33947 ft | 412 kts | 307° |
| 2026-05-05 17:15 | 47.39238 | -118.63122 | 33953 ft | 412 kts | 307° |
| 2026-05-05 17:15 | 47.42165 | -118.70349 | 33958 ft | 413 kts | 307° |
| 2026-05-05 17:16 | 47.45109 | -118.77640 | 33954 ft | 413 kts | 307° |
| 2026-05-05 17:16 | 47.48045 | -118.84931 | 33962 ft | 413 kts | 307° |
| 2026-05-05 17:17 | 47.50986 | -118.92254 | 33953 ft | 413 kts | 307° |
| 2026-05-05 17:17 | 47.53901 | -118.99530 | 33957 ft | 414 kts | 307° |
| 2026-05-05 17:18 | 47.56831 | -119.06863 | 33959 ft | 413 kts | 307° |
| 2026-05-05 17:18 | 47.59760 | -119.14216 | 33960 ft | 413 kts | 306° |
| 2026-05-05 17:19 | 47.62678 | -119.21560 | 33960 ft | 414 kts | 306° |
| 2026-05-05 17:19 | 47.65597 | -119.28928 | 33963 ft | 414 kts | 306° |
| 2026-05-05 17:20 | 47.68496 | -119.36262 | 33965 ft | 414 kts | 306° |
| 2026-05-05 17:20 | 47.71407 | -119.43650 | 33961 ft | 414 kts | 306° |
| 2026-05-05 17:21 | 47.74315 | -119.51049 | 33960 ft | 415 kts | 306° |
| 2026-05-05 17:22 | 47.78674 | -119.62180 | 33958 ft | 415 kts | 306° |
| 2026-05-05 17:22 | 47.81087 | -119.68361 | 33959 ft | 416 kts | 306° |
| 2026-05-05 17:23 | 47.83989 | -119.75812 | 33961 ft | 416 kts | 306° |
| 2026-05-05 17:23 | 47.86882 | -119.83262 | 33950 ft | 416 kts | 305° |
| 2026-05-05 17:24 | 47.90242 | -119.91942 | 33951 ft | 416 kts | 305° |
| 2026-05-05 17:24 | 47.93132 | -119.99430 | 33964 ft | 417 kts | 305° |
| 2026-05-05 17:25 | 47.95552 | -120.05715 | 33955 ft | 417 kts | 305° |
| 2026-05-05 17:25 | 47.98439 | -120.13235 | 33959 ft | 417 kts | 305° |
| 2026-05-05 17:26 | 48.01319 | -120.20755 | 33961 ft | 418 kts | 305° |
| 2026-05-05 17:26 | 48.04188 | -120.28267 | 33963 ft | 418 kts | 305° |
| 2026-05-05 17:27 | 48.07070 | -120.35836 | 33954 ft | 419 kts | 304° |
| 2026-05-05 17:27 | 48.09944 | -120.43410 | 33987 ft | 419 kts | 304° |
| 2026-05-05 17:28 | 48.12824 | -120.51017 | 33962 ft | 419 kts | 304° |
| 2026-05-05 17:28 | 48.15694 | -120.58617 | 33974 ft | 419 kts | 304° |
| 2026-05-05 17:29 | 48.18542 | -120.66184 | 33967 ft | 419 kts | 304° |
| 2026-05-05 17:29 | 48.21394 | -120.73783 | 33951 ft | 417 kts | 304° |
| 2026-05-05 17:30 | 48.24236 | -120.81375 | 33992 ft | 418 kts | 304° |
| 2026-05-05 17:30 | 48.27092 | -120.89029 | 33979 ft | 420 kts | 304° |
| 2026-05-05 17:31 | 48.29945 | -120.96697 | 33979 ft | 420 kts | 304° |
| 2026-05-05 17:31 | 48.32792 | -121.04370 | 33996 ft | 420 kts | 304° |
| 2026-05-05 17:32 | 48.35609 | -121.11984 | 33982 ft | 420 kts | 304° |
| 2026-05-05 17:32 | 48.38447 | -121.19677 | 33999 ft | 420 kts | 303° |
| 2026-05-05 17:33 | 48.41278 | -121.27371 | 34007 ft | 420 kts | 303° |
| 2026-05-05 17:33 | 48.44104 | -121.35079 | 33985 ft | 420 kts | 303° |
| 2026-05-05 17:34 | 48.46922 | -121.42785 | 34002 ft | 420 kts | 303° |
| 2026-05-05 17:34 | 48.49734 | -121.50499 | 34012 ft | 420 kts | 303° |
| 2026-05-05 17:35 | 48.52531 | -121.58194 | 34028 ft | 421 kts | 303° |
| 2026-05-05 17:35 | 48.55335 | -121.65929 | 34033 ft | 420 kts | 303° |
| 2026-05-05 17:36 | 48.58137 | -121.73684 | 34007 ft | 420 kts | 303° |
| 2026-05-05 17:36 | 48.60932 | -121.81439 | 34037 ft | 421 kts | 302° |
| 2026-05-05 17:37 | 48.63725 | -121.89215 | 34050 ft | 421 kts | 302° |
| 2026-05-05 17:37 | 48.66500 | -121.96963 | 34044 ft | 421 kts | 302° |
| 2026-05-05 17:38 | 48.69285 | -122.04764 | 34052 ft | 421 kts | 302° |
| 2026-05-05 17:38 | 48.72073 | -122.12593 | 34055 ft | 422 kts | 302° |
| 2026-05-05 17:39 | 48.74855 | -122.20432 | 34059 ft | 421 kts | 302° |
| 2026-05-05 17:39 | 48.77616 | -122.28233 | 34058 ft | 422 kts | 302° |
| 2026-05-05 17:40 | 48.80383 | -122.36076 | 34063 ft | 421 kts | 302° |
| 2026-05-05 17:40 | 48.83150 | -122.43944 | 34062 ft | 422 kts | 302° |
| 2026-05-05 17:41 | 48.85893 | -122.51764 | 34058 ft | 422 kts | 301° |
| 2026-05-05 17:41 | 48.88650 | -122.59644 | 34061 ft | 422 kts | 301° |
| 2026-05-05 17:42 | 48.91403 | -122.67534 | 34059 ft | 422 kts | 301° |
| 2026-05-05 17:42 | 48.94150 | -122.75429 | 34061 ft | 422 kts | 301° |
| 2026-05-05 17:43 | 48.96874 | -122.83281 | 34056 ft | 422 kts | 301° |
| 2026-05-05 17:43 | 48.99610 | -122.91192 | 34051 ft | 422 kts | 301° |
| 2026-05-05 17:44 | 49.02345 | -122.99122 | 34052 ft | 422 kts | 301° |
| 2026-05-05 17:44 | 49.05071 | -123.07051 | 34053 ft | 422 kts | 301° |
| 2026-05-05 17:45 | 49.07826 | -123.14951 | 34048 ft | 420 kts | 305° |
| 2026-05-05 17:45 | 49.10974 | -123.22454 | 34052 ft | 420 kts | 305° |
| 2026-05-05 17:46 | 49.14086 | -123.30013 | 34051 ft | 421 kts | 305° |
| 2026-05-05 17:46 | 49.17172 | -123.37551 | 34051 ft | 421 kts | 304° |
| 2026-05-05 17:47 | 49.20270 | -123.45143 | 34048 ft | 421 kts | 304° |
| 2026-05-05 17:47 | 49.23363 | -123.52744 | 34043 ft | 421 kts | 304° |
| 2026-05-05 17:48 | 49.26455 | -123.60362 | 34036 ft | 421 kts | 304° |
| 2026-05-05 17:48 | 49.29539 | -123.67984 | 34035 ft | 421 kts | 304° |
| 2026-05-05 17:49 | 49.32621 | -123.75624 | 34030 ft | 421 kts | 304° |
| 2026-05-05 17:49 | 49.35705 | -123.83288 | 34031 ft | 421 kts | 304° |
| 2026-05-05 17:50 | 49.38781 | -123.90959 | 34028 ft | 422 kts | 304° |
| 2026-05-05 17:50 | 49.41830 | -123.98583 | 34024 ft | 421 kts | 304° |
| 2026-05-05 17:51 | 49.44898 | -124.06273 | 34026 ft | 422 kts | 304° |
| 2026-05-05 17:51 | 49.47962 | -124.13979 | 34029 ft | 422 kts | 303° |
| 2026-05-05 17:52 | 49.51017 | -124.21686 | 34030 ft | 422 kts | 303° |
| 2026-05-05 17:52 | 49.54024 | -124.29293 | 34029 ft | 422 kts | 303° |
| 2026-05-05 17:53 | 49.57070 | -124.37020 | 34028 ft | 422 kts | 303° |
| 2026-05-05 17:53 | 49.60110 | -124.44752 | 34031 ft | 422 kts | 303° |
| 2026-05-05 17:54 | 49.63145 | -124.52498 | 34029 ft | 422 kts | 303° |
| 2026-05-05 17:54 | 49.66180 | -124.60265 | 34034 ft | 422 kts | 303° |
| 2026-05-05 17:55 | 49.69187 | -124.67985 | 34035 ft | 422 kts | 303° |
| 2026-05-05 17:55 | 49.72211 | -124.75770 | 34034 ft | 422 kts | 303° |
| 2026-05-05 17:56 | 49.75234 | -124.83576 | 34037 ft | 422 kts | 302° |
| 2026-05-05 17:56 | 49.78247 | -124.91380 | 34037 ft | 423 kts | 302° |
| 2026-05-05 17:57 | 49.81256 | -124.99197 | 34035 ft | 423 kts | 302° |
| 2026-05-05 17:57 | 49.84262 | -125.07030 | 34022 ft | 423 kts | 302° |
| 2026-05-05 17:58 | 49.87261 | -125.14865 | 34026 ft | 423 kts | 302° |
| 2026-05-05 17:58 | 49.90257 | -125.22720 | 34023 ft | 423 kts | 302° |
| 2026-05-05 17:59 | 49.93230 | -125.30537 | 34025 ft | 423 kts | 302° |
| 2026-05-05 17:59 | 49.96214 | -125.38404 | 34027 ft | 423 kts | 302° |
| 2026-05-05 18:00 | 49.99196 | -125.46291 | 34024 ft | 423 kts | 301° |
| 2026-05-05 18:00 | 50.02172 | -125.54187 | 34022 ft | 423 kts | 301° |
| 2026-05-05 18:01 | 50.05145 | -125.62099 | 34016 ft | 423 kts | 301° |
| 2026-05-05 18:01 | 50.08118 | -125.70033 | 34010 ft | 424 kts | 301° |
| 2026-05-05 18:02 | 50.11082 | -125.77971 | 34010 ft | 424 kts | 301° |
| 2026-05-05 18:02 | 50.14022 | -125.85868 | 34009 ft | 424 kts | 301° |
| 2026-05-05 18:03 | 50.16973 | -125.93816 | 34014 ft | 424 kts | 301° |
| 2026-05-05 18:03 | 50.19924 | -126.01791 | 34005 ft | 424 kts | 301° |
| 2026-05-05 18:04 | 50.22877 | -126.09793 | 34006 ft | 424 kts | 300° |
| 2026-05-05 18:04 | 50.25816 | -126.17786 | 34009 ft | 424 kts | 300° |
| 2026-05-05 18:05 | 50.28755 | -126.25803 | 34017 ft | 425 kts | 300° |
| 2026-05-05 18:05 | 50.31669 | -126.33771 | 34010 ft | 425 kts | 300° |
| 2026-05-05 18:06 | 50.34596 | -126.41806 | 34015 ft | 425 kts | 300° |
| 2026-05-05 18:06 | 50.37524 | -126.49868 | 34017 ft | 425 kts | 300° |
| 2026-05-05 18:07 | 50.40443 | -126.57930 | 34018 ft | 426 kts | 300° |
| 2026-05-05 18:07 | 50.43361 | -126.66012 | 34035 ft | 426 kts | 299° |
| 2026-05-05 18:08 | 50.46275 | -126.74110 | 34028 ft | 426 kts | 299° |
| 2026-05-05 18:08 | 50.49185 | -126.82224 | 34036 ft | 426 kts | 299° |
| 2026-05-05 18:09 | 50.52073 | -126.90302 | 34031 ft | 426 kts | 299° |
| 2026-05-05 18:09 | 50.54974 | -126.98437 | 34037 ft | 427 kts | 299° |
| 2026-05-05 18:10 | 50.57873 | -127.06586 | 34041 ft | 427 kts | 298° |
| 2026-05-05 18:10 | 50.60299 | -127.13427 | 34044 ft | 427 kts | 298° |
| 2026-05-05 18:11 | 50.63170 | -127.21543 | 34045 ft | 427 kts | 298° |
| 2026-05-05 18:11 | 50.66055 | -127.29728 | 34045 ft | 427 kts | 298° |
| 2026-05-05 18:12 | 50.69605 | -127.39070 | 34052 ft | 427 kts | 304° |
| 2026-05-05 18:12 | 50.72477 | -127.45498 | 34046 ft | 428 kts | 304° |
| 2026-05-05 18:13 | 50.75902 | -127.53121 | 34046 ft | 428 kts | 304° |
| 2026-05-05 18:13 | 50.79344 | -127.60793 | 34050 ft | 428 kts | 304° |
| 2026-05-05 18:14 | 50.82784 | -127.68481 | 34054 ft | 428 kts | 304° |
| 2026-05-05 18:14 | 50.86224 | -127.76190 | 34052 ft | 428 kts | 303° |
| 2026-05-05 18:15 | 50.89656 | -127.83906 | 34052 ft | 428 kts | 303° |
| 2026-05-05 18:15 | 50.93082 | -127.91631 | 34051 ft | 428 kts | 303° |
| 2026-05-05 18:16 | 50.96506 | -127.99374 | 34049 ft | 428 kts | 303° |
| 2026-05-05 18:16 | 50.99928 | -128.07137 | 34048 ft | 429 kts | 303° |
| 2026-05-05 18:17 | 51.03318 | -128.14848 | 34049 ft | 428 kts | 303° |
| 2026-05-05 18:17 | 51.06726 | -128.22625 | 34048 ft | 429 kts | 303° |
| 2026-05-05 18:18 | 51.10134 | -128.30425 | 34045 ft | 429 kts | 303° |
| 2026-05-05 18:18 | 51.13538 | -128.38238 | 34040 ft | 429 kts | 302° |
| 2026-05-05 18:19 | 51.16911 | -128.46002 | 34042 ft | 429 kts | 302° |
| 2026-05-05 18:19 | 51.20303 | -128.53835 | 34041 ft | 429 kts | 302° |
| 2026-05-05 18:20 | 51.23545 | -128.61346 | 34040 ft | 429 kts | 302° |
| 2026-05-05 18:20 | 51.26930 | -128.69207 | 34035 ft | 429 kts | 302° |
| 2026-05-05 18:21 | 51.30310 | -128.77084 | 34038 ft | 430 kts | 302° |
| 2026-05-05 18:21 | 51.33686 | -128.84975 | 34038 ft | 430 kts | 302° |
| 2026-05-05 18:22 | 51.37040 | -128.92836 | 34036 ft | 430 kts | 301° |
| 2026-05-05 18:22 | 51.40413 | -129.00766 | 34034 ft | 430 kts | 301° |
| 2026-05-05 18:23 | 51.43775 | -129.08696 | 34034 ft | 431 kts | 301° |
| 2026-05-05 18:23 | 51.47144 | -129.16667 | 34029 ft | 431 kts | 301° |
| 2026-05-05 18:24 | 51.50505 | -129.24643 | 34027 ft | 431 kts | 301° |
| 2026-05-05 18:24 | 51.53855 | -129.32617 | 34037 ft | 431 kts | 301° |
| 2026-05-05 18:25 | 51.57188 | -129.40575 | 34033 ft | 431 kts | 300° |
| 2026-05-05 18:25 | 51.60536 | -129.48595 | 34031 ft | 432 kts | 300° |
| 2026-05-05 18:26 | 51.63884 | -129.56638 | 34031 ft | 432 kts | 300° |
| 2026-05-05 18:26 | 51.67230 | -129.64702 | 34031 ft | 432 kts | 300° |
| 2026-05-05 18:27 | 51.70543 | -129.72714 | 34033 ft | 432 kts | 300° |
| 2026-05-05 18:27 | 51.73876 | -129.80796 | 34035 ft | 432 kts | 300° |
| 2026-05-05 18:28 | 51.78870 | -129.92957 | 34037 ft | 433 kts | 299° |
| 2026-05-05 18:28 | 51.82195 | -130.01082 | 34040 ft | 433 kts | 299° |
| 2026-05-05 18:29 | 51.85520 | -130.09236 | 34042 ft | 433 kts | 299° |
| 2026-05-05 18:29 | 51.88814 | -130.17339 | 34036 ft | 433 kts | 299° |
| 2026-05-05 18:30 | 51.92126 | -130.25514 | 34040 ft | 434 kts | 298° |
| 2026-05-05 18:30 | 51.95434 | -130.33702 | 34044 ft | 434 kts | 298° |
| 2026-05-05 18:31 | 51.98737 | -130.41906 | 34053 ft | 434 kts | 298° |
| 2026-05-05 18:31 | 52.02035 | -130.50122 | 34051 ft | 434 kts | 298° |
| 2026-05-05 18:32 | 52.05327 | -130.58353 | 34055 ft | 434 kts | 298° |
| 2026-05-05 18:32 | 52.08599 | -130.66556 | 34065 ft | 435 kts | 298° |
| 2026-05-05 18:33 | 52.11882 | -130.74816 | 34065 ft | 435 kts | 297° |
| 2026-05-05 18:33 | 52.15169 | -130.83110 | 34064 ft | 435 kts | 297° |
| 2026-05-05 18:34 | 52.18424 | -130.91354 | 34069 ft | 435 kts | 297° |
| 2026-05-05 18:34 | 52.21695 | -130.99663 | 34065 ft | 435 kts | 297° |
| 2026-05-05 18:35 | 52.24960 | -131.07983 | 34068 ft | 435 kts | 297° |
| 2026-05-05 18:35 | 52.28226 | -131.16332 | 34070 ft | 435 kts | 297° |
| 2026-05-05 18:36 | 52.31484 | -131.24690 | 34075 ft | 436 kts | 297° |
| 2026-05-05 18:36 | 52.34715 | -131.33008 | 34071 ft | 436 kts | 296° |
| 2026-05-05 18:37 | 52.37966 | -131.41400 | 34072 ft | 436 kts | 296° |
| 2026-05-05 18:37 | 52.41205 | -131.49793 | 34078 ft | 436 kts | 296° |
| 2026-05-05 18:38 | 52.44445 | -131.58213 | 34082 ft | 436 kts | 296° |
| 2026-05-05 18:38 | 52.47678 | -131.66646 | 34076 ft | 436 kts | 296° |
| 2026-05-05 18:39 | 52.50908 | -131.75095 | 34074 ft | 437 kts | 296° |
| 2026-05-05 18:39 | 52.54103 | -131.83486 | 34087 ft | 437 kts | 295° |
| 2026-05-05 18:40 | 52.57319 | -131.91957 | 34082 ft | 437 kts | 295° |
| 2026-05-05 18:40 | 52.60532 | -132.00446 | 34082 ft | 437 kts | 295° |
| 2026-05-05 18:41 | 52.63736 | -132.08943 | 34093 ft | 437 kts | 295° |
| 2026-05-05 18:41 | 52.66937 | -132.17461 | 34099 ft | 437 kts | 295° |
| 2026-05-05 18:42 | 52.70139 | -132.26008 | 34106 ft | 438 kts | 295° |
| 2026-05-05 18:42 | 52.73312 | -132.34508 | 34113 ft | 438 kts | 294° |
| 2026-05-05 18:43 | 52.76503 | -132.43086 | 34120 ft | 438 kts | 294° |
| 2026-05-05 18:43 | 52.79687 | -132.51672 | 34129 ft | 438 kts | 294° |
| 2026-05-05 18:44 | 52.82865 | -132.60275 | 34134 ft | 438 kts | 294° |
| 2026-05-05 18:44 | 52.86037 | -132.68887 | 34136 ft | 438 kts | 294° |
| 2026-05-05 18:45 | 52.89182 | -132.77458 | 34149 ft | 438 kts | 294° |
| 2026-05-05 18:45 | 52.92341 | -132.86095 | 34151 ft | 438 kts | 294° |
| 2026-05-05 18:46 | 52.95494 | -132.94746 | 34148 ft | 438 kts | 293° |
| 2026-05-05 18:46 | 52.98640 | -133.03406 | 34156 ft | 438 kts | 293° |
| 2026-05-05 18:47 | 53.01778 | -133.12077 | 34157 ft | 438 kts | 293° |
| 2026-05-05 18:47 | 53.04912 | -133.20763 | 34161 ft | 437 kts | 293° |
| 2026-05-05 18:48 | 53.08011 | -133.29385 | 34161 ft | 437 kts | 292° |
| 2026-05-05 18:48 | 53.11128 | -133.38087 | 34165 ft | 437 kts | 292° |
| 2026-05-05 18:49 | 53.14231 | -133.46778 | 34167 ft | 437 kts | 292° |
| 2026-05-05 18:49 | 53.17325 | -133.55477 | 34172 ft | 436 kts | 292° |
| 2026-05-05 18:50 | 53.20416 | -133.64194 | 34163 ft | 436 kts | 292° |
| 2026-05-05 18:50 | 53.23495 | -133.72910 | 34169 ft | 436 kts | 292° |
| 2026-05-05 18:51 | 53.26568 | -133.81642 | 34171 ft | 436 kts | 292° |
| 2026-05-05 18:51 | 53.29635 | -133.90384 | 34171 ft | 436 kts | 291° |
| 2026-05-05 18:52 | 53.32695 | -133.99138 | 34173 ft | 436 kts | 291° |
| 2026-05-05 18:52 | 53.35752 | -134.07915 | 34173 ft | 436 kts | 291° |
| 2026-05-05 18:53 | 53.38802 | -134.16704 | 34173 ft | 436 kts | 291° |
| 2026-05-05 18:53 | 53.41828 | -134.25452 | 34175 ft | 437 kts | 291° |
| 2026-05-05 18:54 | 53.44870 | -134.34279 | 34174 ft | 437 kts | 291° |
| 2026-05-05 18:54 | 53.47908 | -134.43124 | 34170 ft | 437 kts | 291° |
| 2026-05-05 18:55 | 53.50939 | -134.51984 | 34176 ft | 437 kts | 290° |
| 2026-05-05 18:55 | 53.53964 | -134.60857 | 34175 ft | 438 kts | 290° |
| 2026-05-05 18:56 | 53.56475 | -134.68246 | 34174 ft | 438 kts | 290° |
| 2026-05-05 18:56 | 53.59497 | -134.77167 | 34174 ft | 439 kts | 290° |
| 2026-05-05 18:57 | 53.63023 | -134.87617 | 34171 ft | 439 kts | 290° |
| 2026-05-05 18:57 | 53.66014 | -134.96520 | 34170 ft | 439 kts | 290° |
| 2026-05-05 18:58 | 53.68534 | -135.04044 | 34173 ft | 440 kts | 289° |
| 2026-05-05 18:58 | 53.71538 | -135.13040 | 34180 ft | 440 kts | 289° |
| 2026-05-05 18:59 | 53.74541 | -135.22057 | 34176 ft | 441 kts | 289° |
| 2026-05-05 18:59 | 53.77520 | -135.31037 | 34176 ft | 441 kts | 289° |
| 2026-05-05 19:00 | 53.80519 | -135.40105 | 34172 ft | 441 kts | 289° |
| 2026-05-05 19:00 | 53.83509 | -135.49181 | 34176 ft | 441 kts | 289° |
| 2026-05-05 19:01 | 53.86495 | -135.58280 | 34171 ft | 442 kts | 288° |
| 2026-05-05 19:01 | 53.89475 | -135.67388 | 34170 ft | 442 kts | 288° |
| 2026-05-05 19:02 | 53.92428 | -135.76448 | 34173 ft | 442 kts | 288° |
| 2026-05-05 19:02 | 53.95400 | -135.85599 | 34167 ft | 442 kts | 288° |
| 2026-05-05 19:03 | 53.98369 | -135.94775 | 34168 ft | 442 kts | 288° |
| 2026-05-05 19:03 | 53.99982 | -135.99279 | 34155 ft | 454 kts | 297° |
| 2026-05-05 19:03 | 54.02147 | -136.03213 | 34166 ft | 468 kts | 307° |
| 2026-05-05 19:04 | 54.06933 | -136.10765 | 34157 ft | 470 kts | 307° |
| 2026-05-05 19:04 | 54.11769 | -136.18278 | 34163 ft | 471 kts | 308° |
| 2026-05-05 19:05 | 54.16613 | -136.25795 | 34168 ft | 471 kts | 308° |
| 2026-05-05 19:05 | 54.21452 | -136.33328 | 34160 ft | 471 kts | 308° |
| 2026-05-05 19:06 | 54.26286 | -136.40878 | 34161 ft | 470 kts | 307° |
| 2026-05-05 19:06 | 54.31117 | -136.48448 | 34155 ft | 470 kts | 307° |
| 2026-05-05 19:07 | 54.35944 | -136.56036 | 34152 ft | 470 kts | 307° |
| 2026-05-05 19:07 | 54.40729 | -136.63585 | 34149 ft | 470 kts | 307° |
| 2026-05-05 19:08 | 54.45550 | -136.71215 | 34152 ft | 470 kts | 307° |
| 2026-05-05 19:08 | 54.50354 | -136.78844 | 34146 ft | 470 kts | 307° |
| 2026-05-05 19:09 | 54.55154 | -136.86490 | 34143 ft | 470 kts | 307° |
| 2026-05-05 19:09 | 54.59955 | -136.94166 | 34140 ft | 470 kts | 307° |
| 2026-05-05 19:10 | 54.64744 | -137.01849 | 34144 ft | 469 kts | 307° |
| 2026-05-05 19:10 | 54.69503 | -137.09509 | 34138 ft | 469 kts | 307° |
| 2026-05-05 19:11 | 54.74274 | -137.17213 | 34134 ft | 469 kts | 307° |
| 2026-05-05 19:11 | 54.79045 | -137.24944 | 34132 ft | 469 kts | 307° |
| 2026-05-05 19:12 | 54.83803 | -137.32680 | 34134 ft | 468 kts | 307° |
| 2026-05-05 19:12 | 54.88551 | -137.40427 | 34128 ft | 468 kts | 307° |
| 2026-05-05 19:13 | 54.93262 | -137.48138 | 34130 ft | 468 kts | 307° |
| 2026-05-05 19:13 | 54.98000 | -137.55920 | 34124 ft | 467 kts | 307° |
| 2026-05-05 19:14 | 55.02718 | -137.63697 | 34120 ft | 467 kts | 307° |
| 2026-05-05 19:14 | 55.07426 | -137.71482 | 34119 ft | 466 kts | 307° |
| 2026-05-05 19:15 | 55.12125 | -137.79279 | 34120 ft | 465 kts | 307° |
| 2026-05-05 19:15 | 55.16807 | -137.87076 | 34115 ft | 465 kts | 307° |
| 2026-05-05 19:16 | 55.21480 | -137.94884 | 34113 ft | 464 kts | 307° |
| 2026-05-05 19:16 | 55.26114 | -138.02651 | 34106 ft | 464 kts | 307° |
| 2026-05-05 19:17 | 55.30772 | -138.10487 | 34109 ft | 463 kts | 307° |
| 2026-05-05 19:17 | 55.35421 | -138.18335 | 34104 ft | 463 kts | 307° |
| 2026-05-05 19:18 | 55.39064 | -138.24503 | 34102 ft | 462 kts | 307° |
| 2026-05-05 19:18 | 55.41922 | -138.29354 | 34103 ft | 462 kts | 307° |
| 2026-05-05 19:19 | 55.46548 | -138.37226 | 34127 ft | 462 kts | 307° |
| 2026-05-05 19:19 | 55.48858 | -138.41168 | 34329 ft | 462 kts | 307° |
| 2026-05-05 19:19 | 55.51166 | -138.45113 | 34458 ft | 463 kts | 307° |
| 2026-05-05 19:20 | 55.53485 | -138.49078 | 34615 ft | 463 kts | 307° |
| 2026-05-05 19:20 | 55.55801 | -138.53055 | 34764 ft | 464 kts | 307° |
| 2026-05-05 19:20 | 55.58123 | -138.57045 | 34924 ft | 464 kts | 307° |
| 2026-05-05 19:20 | 55.60440 | -138.61032 | 35071 ft | 465 kts | 307° |
| 2026-05-05 19:21 | 55.62758 | -138.65029 | 35216 ft | 465 kts | 307° |
| 2026-05-05 19:21 | 55.65074 | -138.69029 | 35377 ft | 465 kts | 307° |
| 2026-05-05 19:21 | 55.67389 | -138.73035 | 35535 ft | 465 kts | 307° |
| 2026-05-05 19:21 | 55.69702 | -138.77044 | 35686 ft | 465 kts | 307° |
| 2026-05-05 19:22 | 55.72016 | -138.81061 | 35837 ft | 465 kts | 307° |
| 2026-05-05 19:22 | 55.74296 | -138.85027 | 35987 ft | 464 kts | 307° |
| 2026-05-05 19:22 | 55.78916 | -138.93084 | 36075 ft | 465 kts | 307° |
| 2026-05-05 19:23 | 55.83530 | -139.01156 | 36075 ft | 464 kts | 307° |
| 2026-05-05 19:23 | 55.88127 | -139.09230 | 36074 ft | 464 kts | 307° |
| 2026-05-05 19:24 | 55.92720 | -139.17324 | 36072 ft | 464 kts | 307° |
| 2026-05-05 19:24 | 55.97274 | -139.25379 | 36064 ft | 464 kts | 307° |
| 2026-05-05 19:25 | 56.01860 | -139.33518 | 36062 ft | 464 kts | 307° |
| 2026-05-05 19:25 | 56.06438 | -139.41672 | 36058 ft | 464 kts | 307° |
| 2026-05-05 19:26 | 56.11013 | -139.49848 | 36055 ft | 464 kts | 307° |
| 2026-05-05 19:26 | 56.15548 | -139.57984 | 36057 ft | 464 kts | 307° |
| 2026-05-05 19:27 | 56.20108 | -139.66192 | 36048 ft | 464 kts | 306° |
| 2026-05-05 19:27 | 56.24662 | -139.74421 | 36045 ft | 464 kts | 306° |
| 2026-05-05 19:28 | 56.29212 | -139.82668 | 36044 ft | 464 kts | 306° |
| 2026-05-05 19:28 | 56.33763 | -139.90951 | 36039 ft | 464 kts | 306° |
| 2026-05-05 19:29 | 56.38301 | -139.99237 | 36035 ft | 464 kts | 306° |
| 2026-05-05 19:29 | 56.42829 | -140.07536 | 36032 ft | 464 kts | 306° |
| 2026-05-05 19:30 | 56.47352 | -140.15856 | 36029 ft | 464 kts | 306° |
| 2026-05-05 19:30 | 56.51842 | -140.24144 | 36024 ft | 463 kts | 306° |
| 2026-05-05 19:31 | 56.56352 | -140.32499 | 36020 ft | 463 kts | 306° |
| 2026-05-05 19:31 | 56.60854 | -140.40870 | 36018 ft | 463 kts | 306° |
| 2026-05-05 19:32 | 56.65352 | -140.49264 | 36015 ft | 463 kts | 306° |
| 2026-05-05 19:32 | 56.69833 | -140.57657 | 36010 ft | 463 kts | 306° |
| 2026-05-05 19:33 | 56.74285 | -140.66026 | 36004 ft | 462 kts | 306° |
| 2026-05-05 19:33 | 56.78757 | -140.74462 | 36007 ft | 462 kts | 306° |
| 2026-05-05 19:34 | 56.83214 | -140.82903 | 35999 ft | 462 kts | 306° |
| 2026-05-05 19:35 | 56.89892 | -140.95606 | 35991 ft | 461 kts | 306° |
| 2026-05-05 19:35 | 56.94333 | -141.04093 | 35987 ft | 461 kts | 306° |
| 2026-05-05 19:36 | 56.98767 | -141.12597 | 35985 ft | 461 kts | 306° |
| 2026-05-05 19:36 | 57.03192 | -141.21116 | 35979 ft | 461 kts | 306° |
| 2026-05-05 19:37 | 57.07611 | -141.29655 | 35977 ft | 461 kts | 306° |
| 2026-05-05 19:37 | 57.12011 | -141.38187 | 35974 ft | 461 kts | 306° |
| 2026-05-05 19:38 | 57.16427 | -141.46783 | 35968 ft | 461 kts | 306° |
| 2026-05-05 19:38 | 57.20825 | -141.55378 | 35966 ft | 461 kts | 306° |
| 2026-05-05 19:39 | 57.25228 | -141.64012 | 35962 ft | 461 kts | 305° |
| 2026-05-05 19:39 | 57.29592 | -141.72602 | 35956 ft | 461 kts | 305° |
| 2026-05-05 19:40 | 57.33974 | -141.81260 | 35957 ft | 461 kts | 305° |
| 2026-05-05 19:40 | 57.38348 | -141.89935 | 35949 ft | 461 kts | 305° |
| 2026-05-05 19:41 | 57.42717 | -141.98632 | 35944 ft | 461 kts | 305° |
| 2026-05-05 19:41 | 57.47083 | -142.07357 | 35941 ft | 461 kts | 305° |
| 2026-05-05 19:42 | 57.51439 | -142.16092 | 35933 ft | 460 kts | 305° |
| 2026-05-05 19:42 | 57.55785 | -142.24843 | 35930 ft | 460 kts | 305° |
| 2026-05-05 19:43 | 57.59393 | -142.32132 | 35925 ft | 460 kts | 305° |
| 2026-05-05 19:43 | 57.63730 | -142.40925 | 35923 ft | 460 kts | 305° |
| 2026-05-05 19:44 | 57.68058 | -142.49730 | 35917 ft | 460 kts | 305° |
| 2026-05-05 19:44 | 57.72374 | -142.58548 | 35914 ft | 460 kts | 305° |
| 2026-05-05 19:45 | 57.76691 | -142.67400 | 35908 ft | 460 kts | 305° |
| 2026-05-05 19:45 | 57.80967 | -142.76203 | 35903 ft | 460 kts | 305° |
| 2026-05-05 19:46 | 57.85267 | -142.85087 | 35902 ft | 460 kts | 305° |
| 2026-05-05 19:46 | 57.89562 | -142.93997 | 35897 ft | 459 kts | 305° |
| 2026-05-05 19:47 | 57.93845 | -143.02914 | 35897 ft | 459 kts | 305° |
| 2026-05-05 19:47 | 57.98127 | -143.11863 | 35889 ft | 459 kts | 305° |
| 2026-05-05 19:48 | 58.02398 | -143.20826 | 35886 ft | 459 kts | 305° |
| 2026-05-05 19:48 | 58.06638 | -143.29756 | 35882 ft | 459 kts | 305° |
| 2026-05-05 19:49 | 58.10896 | -143.38760 | 35877 ft | 459 kts | 305° |
| 2026-05-05 19:49 | 58.15148 | -143.47787 | 35869 ft | 459 kts | 305° |
| 2026-05-05 19:50 | 58.19393 | -143.56832 | 35873 ft | 459 kts | 305° |
| 2026-05-05 19:50 | 58.23600 | -143.65833 | 35858 ft | 459 kts | 305° |
| 2026-05-05 19:51 | 58.27831 | -143.74921 | 35860 ft | 459 kts | 305° |
| 2026-05-05 19:51 | 58.32052 | -143.84022 | 35851 ft | 459 kts | 304° |
| 2026-05-05 19:52 | 58.36271 | -143.93152 | 35856 ft | 459 kts | 304° |
| 2026-05-05 19:52 | 58.40483 | -144.02306 | 35851 ft | 459 kts | 304° |
| 2026-05-05 19:53 | 58.44690 | -144.11484 | 35844 ft | 459 kts | 304° |
| 2026-05-05 19:53 | 58.48865 | -144.20628 | 35847 ft | 459 kts | 304° |
| 2026-05-05 19:54 | 58.53060 | -144.29854 | 35835 ft | 459 kts | 304° |
| 2026-05-05 19:54 | 58.57248 | -144.39100 | 35833 ft | 459 kts | 304° |
| 2026-05-05 19:55 | 58.61426 | -144.48360 | 35824 ft | 459 kts | 304° |
| 2026-05-05 19:55 | 58.65608 | -144.57666 | 35820 ft | 459 kts | 304° |
| 2026-05-05 19:56 | 58.69770 | -144.66967 | 35820 ft | 459 kts | 304° |
| 2026-05-05 19:56 | 58.73906 | -144.76245 | 35814 ft | 459 kts | 304° |
| 2026-05-05 19:57 | 58.78061 | -144.85602 | 35813 ft | 459 kts | 304° |
| 2026-05-05 19:57 | 58.82209 | -144.94983 | 35810 ft | 459 kts | 304° |
| 2026-05-05 19:58 | 58.86348 | -145.04378 | 35808 ft | 459 kts | 304° |
| 2026-05-05 19:58 | 58.90480 | -145.13800 | 35803 ft | 459 kts | 304° |
| 2026-05-05 19:59 | 58.94608 | -145.23243 | 35796 ft | 459 kts | 304° |
| 2026-05-05 19:59 | 58.98731 | -145.32710 | 35796 ft | 460 kts | 304° |
| 2026-05-05 20:00 | 59.02858 | -145.42219 | 35790 ft | 459 kts | 304° |
| 2026-05-05 20:00 | 59.06971 | -145.51734 | 35789 ft | 459 kts | 304° |
| 2026-05-05 20:01 | 59.11056 | -145.61222 | 35786 ft | 459 kts | 304° |
| 2026-05-05 20:01 | 59.15159 | -145.70791 | 35778 ft | 459 kts | 304° |
| 2026-05-05 20:02 | 59.19249 | -145.80366 | 35777 ft | 459 kts | 304° |
| 2026-05-05 20:02 | 59.23307 | -145.89904 | 35783 ft | 459 kts | 304° |
| 2026-05-05 20:03 | 59.27387 | -145.99533 | 35788 ft | 459 kts | 304° |
| 2026-05-05 20:03 | 59.31456 | -146.09171 | 35800 ft | 459 kts | 304° |
| 2026-05-05 20:04 | 59.35525 | -146.18850 | 35812 ft | 459 kts | 304° |
| 2026-05-05 20:04 | 59.39555 | -146.28474 | 35810 ft | 459 kts | 304° |
| 2026-05-05 20:05 | 59.44075 | -146.37410 | 35803 ft | 468 kts | 321° |
| 2026-05-05 20:05 | 59.49402 | -146.44840 | 35806 ft | 470 kts | 320° |
| 2026-05-05 20:06 | 59.54759 | -146.52208 | 35792 ft | 470 kts | 321° |
| 2026-05-05 20:06 | 59.60098 | -146.59547 | 35793 ft | 470 kts | 321° |
| 2026-05-05 20:07 | 59.65483 | -146.66977 | 35776 ft | 469 kts | 321° |
| 2026-05-05 20:07 | 59.70800 | -146.74340 | 35761 ft | 469 kts | 321° |
| 2026-05-05 20:08 | 59.76157 | -146.81789 | 35756 ft | 469 kts | 321° |
| 2026-05-05 20:08 | 59.81504 | -146.89255 | 35751 ft | 469 kts | 321° |
| 2026-05-05 20:09 | 59.86803 | -146.96681 | 35752 ft | 469 kts | 321° |
| 2026-05-05 20:09 | 59.92131 | -147.04180 | 35751 ft | 469 kts | 321° |
| 2026-05-05 20:10 | 59.97456 | -147.11704 | 35751 ft | 468 kts | 321° |
| 2026-05-05 20:10 | 60.02775 | -147.19249 | 35747 ft | 467 kts | 321° |
| 2026-05-05 20:10 | 60.05389 | -147.22967 | 35528 ft | 457 kts | 321° |
| 2026-05-05 20:11 | 60.07943 | -147.26609 | 35019 ft | 455 kts | 321° |
| 2026-05-05 20:11 | 60.10523 | -147.30294 | 34456 ft | 455 kts | 321° |
| 2026-05-05 20:11 | 60.13100 | -147.33984 | 33932 ft | 454 kts | 321° |
| 2026-05-05 20:11 | 60.15669 | -147.37668 | 33375 ft | 453 kts | 321° |
| 2026-05-05 20:12 | 60.18233 | -147.41351 | 32808 ft | 451 kts | 321° |
| 2026-05-05 20:12 | 60.20780 | -147.45019 | 32309 ft | 447 kts | 321° |
| 2026-05-05 20:12 | 60.23261 | -147.48596 | 31839 ft | 443 kts | 321° |
| 2026-05-05 20:12 | 60.25757 | -147.52205 | 31357 ft | 440 kts | 321° |
| 2026-05-05 20:13 | 60.28235 | -147.55792 | 30864 ft | 437 kts | 321° |
| 2026-05-05 20:13 | 60.30696 | -147.59363 | 30391 ft | 434 kts | 320° |
| 2026-05-05 20:13 | 60.33136 | -147.62908 | 29910 ft | 431 kts | 321° |
| 2026-05-05 20:13 | 60.35571 | -147.66455 | 29351 ft | 429 kts | 321° |
| 2026-05-05 20:14 | 60.37978 | -147.69966 | 28861 ft | 425 kts | 321° |
| 2026-05-05 20:14 | 60.40358 | -147.73445 | 28421 ft | 420 kts | 321° |
| 2026-05-05 20:14 | 60.42715 | -147.76896 | 27979 ft | 415 kts | 321° |
| 2026-05-05 20:14 | 60.45042 | -147.80311 | 27536 ft | 411 kts | 321° |
| 2026-05-05 20:15 | 60.47345 | -147.83695 | 27108 ft | 407 kts | 321° |
| 2026-05-05 20:15 | 60.49627 | -147.87054 | 26690 ft | 403 kts | 321° |
| 2026-05-05 20:15 | 60.51859 | -147.90345 | 26278 ft | 400 kts | 321° |
| 2026-05-05 20:15 | 60.54099 | -147.93656 | 25870 ft | 396 kts | 321° |
| 2026-05-05 20:16 | 60.56318 | -147.96940 | 25470 ft | 393 kts | 321° |
| 2026-05-05 20:16 | 60.58518 | -148.00201 | 25071 ft | 390 kts | 321° |
| 2026-05-05 20:16 | 60.60707 | -148.03451 | 24670 ft | 388 kts | 321° |
| 2026-05-05 20:16 | 60.62880 | -148.06682 | 24279 ft | 385 kts | 321° |
| 2026-05-05 20:17 | 60.65040 | -148.09898 | 23894 ft | 383 kts | 321° |
| 2026-05-05 20:17 | 60.67193 | -148.13108 | 23507 ft | 381 kts | 321° |
| 2026-05-05 20:17 | 60.69329 | -148.16299 | 23067 ft | 380 kts | 321° |
| 2026-05-05 20:17 | 60.71426 | -148.19438 | 22650 ft | 377 kts | 321° |
| 2026-05-05 20:18 | 60.73390 | -148.22929 | 22182 ft | 371 kts | 306° |
| 2026-05-05 20:18 | 60.74612 | -148.27459 | 21821 ft | 360 kts | 285° |
| 2026-05-05 20:18 | 60.75369 | -148.32275 | 21527 ft | 353 kts | 285° |
| 2026-05-05 20:18 | 60.76114 | -148.37034 | 21171 ft | 350 kts | 284° |
| 2026-05-05 20:19 | 60.76836 | -148.41756 | 20822 ft | 346 kts | 284° |
| 2026-05-05 20:19 | 60.77541 | -148.46445 | 20470 ft | 343 kts | 284° |
| 2026-05-05 20:19 | 60.78235 | -148.51099 | 20120 ft | 340 kts | 284° |
| 2026-05-05 20:19 | 60.78918 | -148.55712 | 19773 ft | 338 kts | 284° |
| 2026-05-05 20:20 | 60.79596 | -148.60310 | 19420 ft | 335 kts | 284° |
| 2026-05-05 20:20 | 60.80266 | -148.64870 | 19093 ft | 333 kts | 284° |
| 2026-05-05 20:20 | 60.80928 | -148.69390 | 18755 ft | 332 kts | 284° |
| 2026-05-05 20:20 | 60.81591 | -148.73919 | 18412 ft | 331 kts | 284° |
| 2026-05-05 20:21 | 60.82248 | -148.78426 | 18069 ft | 330 kts | 284° |
| 2026-05-05 20:21 | 60.82900 | -148.82914 | 17688 ft | 328 kts | 284° |
| 2026-05-05 20:21 | 60.83546 | -148.87368 | 17338 ft | 324 kts | 284° |
| 2026-05-05 20:21 | 60.84174 | -148.91714 | 17013 ft | 319 kts | 284° |
| 2026-05-05 20:22 | 60.84801 | -148.96061 | 16673 ft | 315 kts | 284° |
| 2026-05-05 20:22 | 60.85417 | -149.00351 | 16367 ft | 312 kts | 284° |
| 2026-05-05 20:22 | 60.86030 | -149.04618 | 16042 ft | 309 kts | 284° |
| 2026-05-05 20:22 | 60.86628 | -149.08801 | 15819 ft | 302 kts | 283° |
| 2026-05-05 20:23 | 60.87213 | -149.12899 | 15606 ft | 299 kts | 283° |
| 2026-05-05 20:23 | 60.87807 | -149.17064 | 15322 ft | 307 kts | 283° |
| 2026-05-05 20:23 | 60.88414 | -149.21301 | 15006 ft | 311 kts | 285° |
| 2026-05-05 20:23 | 60.89287 | -149.25397 | 14614 ft | 315 kts | 294° |
| 2026-05-05 20:24 | 60.90257 | -149.29419 | 14266 ft | 314 kts | 293° |
| 2026-05-05 20:24 | 60.91189 | -149.33405 | 13922 ft | 312 kts | 292° |
| 2026-05-05 20:24 | 60.92116 | -149.37434 | 13566 ft | 311 kts | 292° |
| 2026-05-05 20:24 | 60.93031 | -149.41467 | 13165 ft | 312 kts | 292° |
| 2026-05-05 20:25 | 60.93943 | -149.45514 | 12773 ft | 312 kts | 292° |
| 2026-05-05 20:25 | 60.94853 | -149.49576 | 12405 ft | 311 kts | 292° |
| 2026-05-05 20:25 | 60.95756 | -149.53612 | 12034 ft | 310 kts | 292° |
| 2026-05-05 20:25 | 60.96653 | -149.57635 | 11681 ft | 308 kts | 292° |
| 2026-05-05 20:26 | 60.97543 | -149.61637 | 11319 ft | 307 kts | 292° |
| 2026-05-05 20:26 | 60.98429 | -149.65629 | 10968 ft | 305 kts | 292° |